Time;durP1;ratioP1;P1;durP2;ratioP2;P2;SDS_P1;SDS_P2;PMS_P1;PMS_P2;Temp;Humidity;BMP_temperature;BMP_pressure;BME280_temperature;BME280_humidity;BME280_pressure;Samples;Min_cycle;Max_cycle;Signal;HPM_P1;HPM_P2
2021/01/16 00:02:35;;;;;;;7.27;4.40;;;;;;;;;;14999242;29;20320;-83
2021/01/16 00:10:06;;;;;;;7.00;4.73;;;;;;;;;;15016448;29;20308;-85
2021/01/16 00:17:33;;;;;;;6.37;4.20;;;;;;;;;;15006052;29;20653;-75
2021/01/16 00:25:00;;;;;;;7.37;4.87;;;;;;;;;;15010972;29;20233;-90
2021/01/16 00:32:26;;;;;;;7.10;4.47;;;;;;;;;;15020002;29;20572;-85
2021/01/16 00:39:54;;;;;;;9.20;5.87;;;;;;;;;;15009943;29;20328;-85
2021/01/16 00:47:23;;;;;;;8.40;5.23;;;;;;;;;;15024278;29;20221;-84
2021/01/16 00:54:51;;;;;;;8.63;5.40;;;;;;;;;;15000256;29;20292;-86
2021/01/16 01:02:19;;;;;;;8.03;5.50;;;;;;;;;;15014817;29;20246;-87
2021/01/16 01:09:48;;;;;;;9.23;5.20;;;;;;;;;;15022206;29;20218;-88
2021/01/16 01:17:16;;;;;;;9.27;5.60;;;;;;;;;;15020654;29;20702;-86
2021/01/16 01:24:46;;;;;;;8.50;5.60;;;;;;;;;;15008434;29;20233;-87
2021/01/16 01:32:14;;;;;;;10.33;5.50;;;;;;;;;;15003254;29;20319;-87
2021/01/16 01:39:41;;;;;;;9.07;5.97;;;;;;;;;;15003187;29;20218;-87
2021/01/16 01:47:08;;;;;;;9.47;6.33;;;;;;;;;;15021612;29;20198;-87
2021/01/16 01:54:38;;;;;;;8.83;6.27;;;;;;;;;;15007525;29;20210;-84
2021/01/16 02:02:06;;;;;;;9.83;6.33;;;;;;;;;;15019383;29;20194;-86
2021/01/16 02:09:37;;;;;;;9.50;6.33;;;;;;;;;;15012984;29;20232;-87
2021/01/16 02:17:05;;;;;;;9.20;6.00;;;;;;;;;;15012286;29;20210;-87
2021/01/16 02:24:43;;;;;;;9.60;6.07;;;0.80;60.20;;;;;;15028156;29;20300;-86
2021/01/16 02:32:12;;;;;;;10.27;6.70;;;;;;;;;;14977889;29;20278;-88
2021/01/16 02:39:42;;;;;;;9.07;6.23;;;;;;;;;;14975880;29;20300;-92
2021/01/16 02:47:20;;;;;;;10.37;6.90;;;0.70;61.00;;;;;;14971112;29;20167;-91
2021/01/16 02:54:48;;;;;;;8.73;6.17;;;;;;;;;;15023801;29;20213;-87
2021/01/16 03:02:17;;;;;;;12.13;7.60;;;;;;;;;;15039370;29;20201;-86
2021/01/16 03:09:45;;;;;;;12.77;8.33;;;;;;;;;;15041097;29;20755;-86
2021/01/16 03:17:13;;;;;;;12.97;8.70;;;;;;;;;;15024513;29;20222;-85
2021/01/16 03:24:41;;;;;;;12.77;7.90;;;;;;;;;;15033893;29;20873;-88
2021/01/16 03:32:09;;;;;;;10.97;7.40;;;;;;;;;;15018318;29;20636;-86
2021/01/16 03:39:37;;;;;;;11.77;8.43;;;;;;;;;;15016483;29;20715;-86
2021/01/16 03:47:07;;;;;;;13.23;8.03;;;;;;;;;;15035703;29;20186;-89
2021/01/16 03:54:35;;;;;;;12.10;7.80;;;;;;;;;;15044494;29;20213;-92
2021/01/16 04:02:02;;;;;;;10.37;7.30;;;;;;;;;;15047216;29;20227;-90
2021/01/16 04:09:31;;;;;;;10.37;8.07;;;;;;;;;;15020935;29;20693;-88
2021/01/16 04:16:58;;;;;;;12.80;9.30;;;;;;;;;;15016456;29;20202;-90
2021/01/16 04:24:26;;;;;;;14.60;9.67;;;;;;;;;;15021344;29;20230;-86
2021/01/16 04:31:53;;;;;;;13.97;9.70;;;;;;;;;;15010816;29;20226;-81
2021/01/16 04:39:21;;;;;;;15.87;9.77;;;;;;;;;;15034746;29;20233;-81
2021/01/16 04:46:50;;;;;;;13.73;9.43;;;;;;;;;;15006903;29;20221;-80
2021/01/16 04:54:18;;;;;;;14.40;9.63;;;;;;;;;;15011869;29;20218;-80
2021/01/16 05:01:47;;;;;;;13.53;9.50;;;;;;;;;;15013575;29;20186;-82
2021/01/16 05:09:14;;;;;;;14.63;9.13;;;;;;;;;;15001919;29;20293;-83
2021/01/16 05:16:56;;;;;;;13.63;9.23;;;0.80;63.30;;;;;;14955001;29;20689;-81
2021/01/16 05:24:23;;;;;;;12.43;8.97;;;;;;;;;;14935747;29;20234;-81
2021/01/16 05:31:52;;;;;;;13.07;9.60;;;;;;;;;;14953226;29;20238;-79
2021/01/16 05:39:20;;;;;;;14.67;8.97;;;;;;;;;;14955087;29;20716;-84
2021/01/16 05:46:49;;;;;;;12.93;8.67;;;0.80;63.70;;;;;;14965282;29;20677;-82
2021/01/16 05:54:17;;;;;;;15.53;9.17;;;;;;;;;;14947786;29;20281;-81
2021/01/16 06:01:46;;;;;;;13.77;9.57;;;;;;;;;;14965612;29;20246;-82
2021/01/16 06:09:14;;;;;;;15.57;10.00;;;;;;;;;;14947195;29;20568;-82
2021/01/16 06:16:49;;;;;;;15.77;10.37;;;;;;;;;;14951100;29;20729;-80
2021/01/16 06:24:16;;;;;;;15.30;10.63;;;;;;;;;;14966277;29;20241;-79
2021/01/16 06:31:51;;;;;;;18.33;10.73;;;1.40;65.30;;;;;;14963666;29;20218;-79
2021/01/16 06:39:22;;;;;;;15.53;10.93;;;1.40;65.10;;;;;;14962016;29;20682;-81
2021/01/16 06:46:51;;;;;;;15.80;11.77;;;;;;;;;;14961497;29;20217;-82
2021/01/16 06:54:23;;;;;;;17.83;11.90;;;1.30;65.50;;;;;;14943791;29;20218;-82
2021/01/16 07:01:49;;;;;;;15.57;11.63;;;;;;;;;;14961242;29;20550;-86
2021/01/16 07:09:18;;;;;;;15.83;11.13;;;1.00;65.40;;;;;;14961049;29;20636;-81
2021/01/16 07:16:46;;;;;;;15.87;10.80;;;;;;;;;;14942998;29;20194;-82
2021/01/16 07:24:12;;;;;;;15.70;11.37;;;;;;;;;;14958577;29;20328;-79
2021/01/16 07:31:40;;;;;;;18.33;12.50;;;;;;;;;;14941914;29;20230;-83
2021/01/16 07:39:09;;;;;;;15.37;11.77;;;;;;;;;;14959130;29;20703;-84
2021/01/16 07:46:36;;;;;;;17.80;11.17;;;;;;;;;;14959412;29;20186;-86
2021/01/16 07:54:04;;;;;;;16.10;10.70;;;;;;;;;;14943909;29;20790;-88
2021/01/16 08:01:40;;;;;;;14.37;9.90;;;;;;;;;;14965873;29;20534;-83
2021/01/16 08:09:08;;;;;;;17.40;10.00;;;;;;;;;;14958088;29;20226;-84
2021/01/16 08:16:35;;;;;;;17.17;9.97;;;;;;;;;;14958165;29;20206;-86
2021/01/16 08:24:05;;;;;;;11.93;7.43;;;;;;;;;;14956829;29;20724;-82
2021/01/16 08:31:31;;;;;;;12.00;7.90;;;;;;;;;;14939860;29;20214;-83
2021/01/16 08:39:18;;;;;;;13.43;7.97;;;;;;;;;;14955806;29;20306;-83
2021/01/16 08:46:44;;;;;;;12.37;7.70;;;;;;;;;;14938089;29;20623;-82
2021/01/16 08:54:13;;;;;;;9.67;6.50;;;;;;;;;;14954857;29;20227;-81
2021/01/16 09:01:42;;;;;;;9.70;6.20;;;;;;;;;;14956439;29;20194;-83
2021/01/16 09:09:08;;;;;;;10.30;6.07;;;;;;;;;;14938388;29;20601;-81
2021/01/16 09:16:37;;;;;;;9.37;5.27;;;2.80;60.80;;;;;;14961001;29;20206;-85
2021/01/16 09:24:24;;;;;;;12.80;5.40;;;;;;;;;;14970058;29;20570;-86
2021/01/16 09:31:51;;;;;;;9.33;6.23;;;;;;;;;;14998939;29;20203;-90
2021/01/16 09:39:22;;;;;;;10.17;7.33;;;;;;;;;;15014358;29;20213;-88
2021/01/16 09:46:49;;;;;;;13.03;7.33;;;;;;;;;;14970439;29;20273;-89
2021/01/16 09:54:20;;;;;;;8.17;6.03;;;;;;;;;;14995402;29;20320;-89
2021/01/16 10:02:08;;;;;;;8.50;6.27;;;;;;;;;;15026441;29;20190;-90
2021/01/16 10:09:43;;;;;;;9.23;6.43;;;;;;;;;;15053738;29;20217;-89
2021/01/16 10:17:12;;;;;;;10.60;6.33;;;;;;;;;;15056177;29;20198;-91
2021/01/16 10:24:45;;;;;;;9.67;7.00;;;;;;;;;;15061423;29;20230;-90
2021/01/16 10:32:21;;;;;;;9.90;7.30;;;;;;;;;;15034999;29;20258;-88
2021/01/16 10:39:51;;;;;;;10.00;7.10;;;;;;;;;;15091512;29;20225;-88
2021/01/16 10:47:31;;;;;;;9.00;7.33;;;;;;;;;;15010582;29;20235;-86
2021/01/16 10:55:02;;;;;;;8.80;6.67;;;;;;;;;;14954349;29;20210;-87
2021/01/16 11:02:35;;;;;;;12.60;6.90;;;;;;;;;;15018947;29;20190;-91
2021/01/16 11:10:07;;;;;;;9.80;6.30;;;;;;;;;;15020147;29;20234;-82
2021/01/16 11:17:47;;;;;;;7.37;5.83;;;;;;;;;;15014860;29;20206;-90
2021/01/16 11:25:40;;;;;;;9.93;6.33;;;2.70;59.40;;;;;;15024858;29;20303;-88
2021/01/16 11:33:12;;;;;;;10.17;5.67;;;;;;;;;;15012554;29;20214;-85
2021/01/16 11:40:46;;;;;;;12.77;7.67;;;3.50;59.00;;;;;;14962091;29;20223;-90
2021/01/16 11:48:13;;;;;;;11.20;7.00;;;;;;;;;;14980662;29;20198;-87
2021/01/16 11:55:41;;;;;;;11.40;7.87;;;;;;;;;;15038858;29;20191;-85
2021/01/16 12:03:09;;;;;;;10.23;7.10;;;;;;;;;;15021770;29;20186;-88
2021/01/16 12:10:36;;;;;;;12.27;7.00;;;;;;;;;;15015372;29;20226;-90
2021/01/16 12:18:04;;;;;;;9.57;7.30;;;;;;;;;;15045895;29;20199;-90
2021/01/16 12:25:31;;;;;;;8.50;6.37;;;;;;;;;;15038255;29;20226;-88
2021/01/16 12:32:57;;;;;;;10.27;7.20;;;;;;;;;;15021079;29;20228;-85
2021/01/16 12:40:25;;;;;;;13.07;8.03;;;;;;;;;;15015900;29;20234;-81
2021/01/16 12:47:53;;;;;;;10.13;7.63;;;;;;;;;;15022731;29;20249;-82
2021/01/16 12:55:21;;;;;;;11.23;7.00;;;;;;;;;;14980322;29;20227;-84
2021/01/16 13:02:55;;;;;;;10.03;6.67;;;;;;;;;;14960080;29;20484;-84
2021/01/16 13:10:22;;;;;;;10.20;6.83;;;;;;;;;;14963245;29;20226;-92
2021/01/16 13:17:51;;;;;;;8.43;6.20;;;;;;;;;;14986939;29;20570;-85
2021/01/16 13:25:18;;;;;;;8.27;5.77;;;;;;;;;;15066284;29;20221;-83
2021/01/16 13:32:45;;;;;;;9.80;5.20;;;;;;;;;;15005605;29;20234;-84
2021/01/16 13:40:20;;;;;;;6.03;5.00;;;;;;;;;;14995206;29;20246;-85
2021/01/16 13:47:55;;;;;;;7.53;5.10;;;;;;;;;;14992720;29;20644;-83
2021/01/16 13:55:24;;;;;;;7.20;4.33;;;;;;;;;;15008889;29;20221;-85
2021/01/16 14:02:51;;;;;;;6.87;5.30;;;;;;;;;;15013073;29;20200;-85
2021/01/16 14:10:31;;;;;;;7.37;4.80;;;;;;;;;;15002483;29;20230;-79
2021/01/16 14:17:58;;;;;;;8.97;5.53;;;;;;;;;;15013796;29;20250;-85
2021/01/16 14:25:25;;;;;;;7.93;5.50;;;;;;;;;;15014111;29;20313;-82
2021/01/16 14:32:58;;;;;;;8.13;5.00;;;;;;;;;;14998617;29;20768;-80
2021/01/16 14:40:29;;;;;;;6.67;4.90;;;;;;;;;;15013731;29;20209;-82
2021/01/16 14:48:08;;;;;;;6.00;4.77;;;;;;;;;;15014184;29;20198;-82
2021/01/16 14:55:37;;;;;;;8.00;5.20;;;;;;;;;;14995180;29;20255;-79
2021/01/16 15:03:07;;;;;;;6.63;5.33;;;;;;;;;;14980229;29;20206;-79
2021/01/16 15:10:37;;;;;;;8.80;5.27;;;;;;;;;;14992616;29;20357;-80
2021/01/16 15:18:09;;;;;;;8.70;5.43;;;;;;;;;;15009215;29;20190;-79
2021/01/16 15:25:43;;;;;;;8.63;6.83;;;;;;;;;;14993084;29;20233;-80
2021/01/16 15:33:11;;;;;;;9.07;5.43;;;;;;;;;;15009205;29;20238;-79
2021/01/16 15:40:38;;;;;;;8.53;5.90;;;;;;;;;;15011286;29;20222;-85
2021/01/16 15:48:10;;;;;;;10.87;6.23;;;;;;;;;;14998640;29;20346;-81
2021/01/16 15:55:40;;;;;;;7.90;6.10;;;;;;;;;;15037123;29;20210;-83
2021/01/16 16:03:09;;;;;;;8.83;6.80;;;;;;;;;;15029556;29;20194;-81
2021/01/16 16:10:38;;;;;;;8.47;6.73;;;;;;;;;;14994400;29;20194;-82
2021/01/16 16:18:11;;;;;;;10.57;7.80;;;;;;;;;;15010545;29;20750;-80
2021/01/16 16:25:39;;;;;;;10.23;7.63;;;;;;;;;;15014194;29;20788;-82
2021/01/16 16:33:08;;;;;;;11.67;7.90;;;;;;;;;;15023291;29;20241;-80
2021/01/16 16:40:36;;;;;;;17.17;8.70;;;;;;;;;;14991492;29;20607;-85
2021/01/16 16:48:05;;;;;;;9.23;7.03;;;;;;;;;;14993065;29;20664;-83
2021/01/16 16:55:33;;;;;;;8.93;6.87;;;;;;;;;;14961443;29;20230;-84
2021/01/16 17:03:00;;;;;;;9.67;7.37;;;;;;;;;;15007402;29;20198;-81
2021/01/16 17:10:29;;;;;;;10.50;7.80;;;;;;;;;;15006965;29;20300;-81
2021/01/16 17:17:58;;;;;;;8.00;6.63;;;;;;;;;;14992085;29;20202;-80
2021/01/16 17:25:28;;;;;;;9.27;7.40;;;;;;;;;;15007615;29;20289;-81
2021/01/16 17:32:58;;;;;;;10.20;6.40;;;;;;;;;;14986537;29;20584;-81
2021/01/16 17:40:25;;;;;;;11.23;7.37;;;;;;;;;;14999879;29;20198;-81
2021/01/16 17:47:53;;;;;;;9.20;7.17;;;;;;;;;;15001653;29;20718;-82
2021/01/16 17:55:23;;;;;;;8.77;6.57;;;;;;;;;;14998733;29;20217;-83
2021/01/16 18:02:53;;;;;;;10.03;6.97;;;;;;;;;;15017345;29;20181;-84
2021/01/16 18:10:24;;;;;;;9.03;7.13;;;;;;;;;;14986127;29;20215;-86
2021/01/16 18:17:54;;;;;;;10.73;6.63;;;;;;;;;;15019024;29;20198;-82
2021/01/16 18:25:21;;;;;;;8.87;6.07;;;;;;;;;;15017596;29;20596;-83
2021/01/16 18:32:51;;;;;;;8.90;5.97;;;;;;;;;;14987248;29;20226;-89
2021/01/16 18:40:20;;;;;;;10.57;6.87;;;;;;;;;;15026047;29;20186;-83
2021/01/16 18:47:53;;;;;;;11.23;7.03;;;;;;;;;;15010563;29;20211;-80
2021/01/16 18:55:23;;;;;;;9.97;7.00;;;;;;;;;;14998752;29;20229;-82
2021/01/16 19:02:57;;;;;;;11.33;7.50;;;;;;;;;;15003432;29;20198;-83
2021/01/16 19:10:26;;;;;;;11.10;7.50;;;;;;;;;;15028967;29;20406;-83
2021/01/16 19:17:56;;;;;;;10.40;7.17;;;;;;;;;;15018268;29;20217;-84
2021/01/16 19:25:25;;;;;;;10.17;7.80;;;;;;;;;;15013630;29;20313;-80
2021/01/16 19:32:52;;;;;;;10.93;7.77;;;;;;;;;;15013773;29;20226;-81
2021/01/16 19:40:19;;;;;;;10.13;7.60;;;;;;;;;;15015620;29;20285;-84
2021/01/16 19:47:46;;;;;;;10.97;7.20;;;;;;;;;;14997610;29;20206;-85
2021/01/16 19:55:14;;;;;;;9.43;7.80;;;;;;;;;;15014862;29;20237;-87
2021/01/16 20:02:40;;;;;;;9.93;7.37;;;;;;;;;;15014162;29;20202;-83
2021/01/16 20:10:08;;;;;;;11.00;8.30;;;;;;;;;;15015459;29;20225;-83
2021/01/16 20:17:36;;;;;;;11.27;8.17;;;;;;;;;;15012721;29;20202;-80
2021/01/16 20:25:03;;;;;;;11.03;8.20;;;;;;;;;;15012133;29;20230;-84
2021/01/16 20:32:33;;;;;;;10.47;7.70;;;1.80;61.30;;;;;;14995489;29;20564;-79
2021/01/16 20:40:03;;;;;;;10.43;7.67;;;;;;;;;;14992507;29;20237;-79
2021/01/16 20:47:29;;;;;;;9.73;7.47;;;;;;;;;;15008709;29;20194;-79
2021/01/16 20:54:59;;;;;;;9.27;7.07;;;;;;;;;;15007139;29;20236;-78
2021/01/16 21:02:27;;;;;;;11.13;7.23;;;;;;;;;;15008214;29;20225;-80
2021/01/16 21:09:54;;;;;;;10.43;7.00;;;;;;;;;;14992185;29;20221;-79
2021/01/16 21:17:21;;;;;;;9.90;6.93;;;;;;;;;;15019801;29;20209;-79
2021/01/16 21:24:48;;;;;;;8.73;6.80;;;-0.20;67.20;;;;;;15020335;29;20226;-77
2021/01/16 21:32:15;;;;;;;9.43;7.20;;;;;;;;;;14998059;29;20645;-81
2021/01/16 21:39:42;;;;;;;10.43;7.73;;;;;;;;;;14985453;29;20205;-78
2021/01/16 21:47:33;;;;;;;9.93;6.73;;;;;;;;;;15017837;29;20206;-81
2021/01/16 21:55:03;;;;;;;10.60;7.40;;;;;;;;;;14990579;29;20238;-81
2021/01/16 22:02:30;;;;;;;9.00;6.90;;;;;;;;;;14989846;29;20305;-80
2021/01/16 22:09:57;;;;;;;11.93;8.00;;;;;;;;;;15000463;29;20218;-84
2021/01/16 22:17:26;;;;;;;10.10;7.27;;;;;;;;;;15023809;29;20202;-82
2021/01/16 22:24:52;;;;;;;10.17;6.80;;;;;;;;;;14993478;29;20273;-81
2021/01/16 22:32:19;;;;;;;11.53;7.33;;;;;;;;;;15037870;29;20218;-83
2021/01/16 22:39:46;;;;;;;9.40;6.83;;;;;;;;;;15015010;29;20253;-82
2021/01/16 22:47:13;;;;;;;11.27;7.13;;;;;;;;;;15017756;29;20257;-82
2021/01/16 22:54:40;;;;;;;9.43;7.17;;;;;;;;;;14981597;29;20230;-84
2021/01/16 23:02:08;;;;;;;9.10;6.90;;;;;;;;;;14988858;29;20222;-78
2021/01/16 23:09:35;;;;;;;8.83;6.87;;;;;;;;;;15013997;29;20208;-81
2021/01/16 23:17:02;;;;;;;9.50;7.90;;;;;;;;;;14965437;29;20226;-81
2021/01/16 23:24:30;;;;;;;11.50;8.77;;;;;;;;;;14997358;29;20588;-81
2021/01/16 23:31:57;;;;;;;11.10;8.50;;;;;;;;;;15009432;29;20660;-85
2021/01/16 23:39:23;;;;;;;11.00;8.60;;;;;;;;;;14997445;29;20194;-89
2021/01/16 23:46:50;;;;;;;10.47;7.80;;;;;;;;;;14997994;29;20645;-82
2021/01/16 23:54:17;;;;;;;10.80;8.00;;;;;;;;;;15011267;29;20222;-80
